sensor_id;sensor_type;location;lat;lon;timestamp;P1;durP1;ratioP1;P2;durP2;ratioP2
7539;SDS011;3811;49.006;12.076;2023-07-20T00:00:25;3.93;;;2.73;;
7539;SDS011;3811;49.006;12.076;2023-07-20T00:02:52;4.23;;;3.13;;
7539;SDS011;3811;49.006;12.076;2023-07-20T00:05:21;4.27;;;2.73;;
7539;SDS011;3811;49.006;12.076;2023-07-20T00:07:49;3.43;;;2.97;;
7539;SDS011;3811;49.006;12.076;2023-07-20T00:10:17;3.27;;;2.97;;
7539;SDS011;3811;49.006;12.076;2023-07-20T00:12:44;5.53;;;3.07;;
7539;SDS011;3811;49.006;12.076;2023-07-20T00:15:14;7.33;;;3.13;;
7539;SDS011;3811;49.006;12.076;2023-07-20T00:17:41;4.33;;;3.20;;
7539;SDS011;3811;49.006;12.076;2023-07-20T00:20:10;3.40;;;2.90;;
7539;SDS011;3811;49.006;12.076;2023-07-20T00:22:38;3.90;;;3.57;;
7539;SDS011;3811;49.006;12.076;2023-07-20T00:25:06;3.47;;;2.90;;
7539;SDS011;3811;49.006;12.076;2023-07-20T00:27:33;5.80;;;2.70;;
7539;SDS011;3811;49.006;12.076;2023-07-20T00:30:00;3.67;;;3.23;;
7539;SDS011;3811;49.006;12.076;2023-07-20T00:32:27;4.03;;;3.00;;
7539;SDS011;3811;49.006;12.076;2023-07-20T00:34:56;3.13;;;2.83;;
7539;SDS011;3811;49.006;12.076;2023-07-20T00:37:23;5.23;;;3.53;;
7539;SDS011;3811;49.006;12.076;2023-07-20T00:39:52;3.30;;;3.00;;
7539;SDS011;3811;49.006;12.076;2023-07-20T00:42:19;3.40;;;3.07;;
7539;SDS011;3811;49.006;12.076;2023-07-20T00:44:47;3.70;;;3.13;;
7539;SDS011;3811;49.006;12.076;2023-07-20T00:47:14;3.87;;;3.47;;
7539;SDS011;3811;49.006;12.076;2023-07-20T00:49:41;4.73;;;2.90;;
7539;SDS011;3811;49.006;12.076;2023-07-20T00:52:09;5.47;;;3.23;;
7539;SDS011;3811;49.006;12.076;2023-07-20T00:57:38;3.50;;;2.77;;
7539;SDS011;3811;49.006;12.076;2023-07-20T01:00:06;3.73;;;3.10;;
7539;SDS011;3811;49.006;12.076;2023-07-20T01:02:34;4.27;;;3.10;;
7539;SDS011;3811;49.006;12.076;2023-07-20T01:05:01;3.23;;;2.93;;
7539;SDS011;3811;49.006;12.076;2023-07-20T01:07:31;3.60;;;3.30;;
7539;SDS011;3811;49.006;12.076;2023-07-20T01:10:03;4.07;;;3.27;;
7539;SDS011;3811;49.006;12.076;2023-07-20T01:12:40;3.70;;;2.90;;
7539;SDS011;3811;49.006;12.076;2023-07-20T01:15:09;4.03;;;2.90;;
7539;SDS011;3811;49.006;12.076;2023-07-20T01:17:37;8.03;;;3.20;;
7539;SDS011;3811;49.006;12.076;2023-07-20T01:20:05;5.67;;;3.30;;
7539;SDS011;3811;49.006;12.076;2023-07-20T01:23:00;3.87;;;3.20;;
7539;SDS011;3811;49.006;12.076;2023-07-20T01:25:45;4.17;;;3.10;;
7539;SDS011;3811;49.006;12.076;2023-07-20T01:28:37;3.07;;;2.87;;
7539;SDS011;3811;49.006;12.076;2023-07-20T01:31:23;3.27;;;2.97;;
7539;SDS011;3811;49.006;12.076;2023-07-20T01:33:52;5.57;;;3.47;;
7539;SDS011;3811;49.006;12.076;2023-07-20T01:36:21;3.27;;;2.63;;
7539;SDS011;3811;49.006;12.076;2023-07-20T01:38:49;3.80;;;3.30;;
7539;SDS011;3811;49.006;12.076;2023-07-20T01:41:17;3.73;;;3.17;;
7539;SDS011;3811;49.006;12.076;2023-07-20T01:43:44;5.73;;;3.30;;
7539;SDS011;3811;49.006;12.076;2023-07-20T01:46:12;3.50;;;3.20;;
7539;SDS011;3811;49.006;12.076;2023-07-20T01:48:41;3.90;;;3.30;;
7539;SDS011;3811;49.006;12.076;2023-07-20T01:51:08;4.50;;;3.20;;
7539;SDS011;3811;49.006;12.076;2023-07-20T01:53:37;5.53;;;3.43;;
7539;SDS011;3811;49.006;12.076;2023-07-20T01:56:04;4.17;;;3.57;;
7539;SDS011;3811;49.006;12.076;2023-07-20T01:58:30;6.20;;;3.50;;
7539;SDS011;3811;49.006;12.076;2023-07-20T02:00:57;4.80;;;3.20;;
7539;SDS011;3811;49.006;12.076;2023-07-20T02:03:24;3.50;;;3.10;;
7539;SDS011;3811;49.006;12.076;2023-07-20T02:05:53;3.43;;;2.83;;
7539;SDS011;3811;49.006;12.076;2023-07-20T02:08:22;4.60;;;3.20;;
7539;SDS011;3811;49.006;12.076;2023-07-20T02:10:49;3.47;;;3.17;;
7539;SDS011;3811;49.006;12.076;2023-07-20T02:13:16;3.27;;;2.97;;
7539;SDS011;3811;49.006;12.076;2023-07-20T02:15:43;3.07;;;2.80;;
7539;SDS011;3811;49.006;12.076;2023-07-20T02:18:12;4.10;;;3.37;;
7539;SDS011;3811;49.006;12.076;2023-07-20T02:20:40;4.23;;;3.07;;
7539;SDS011;3811;49.006;12.076;2023-07-20T02:23:09;3.67;;;3.00;;
7539;SDS011;3811;49.006;12.076;2023-07-20T02:25:36;4.13;;;3.00;;
7539;SDS011;3811;49.006;12.076;2023-07-20T02:28:03;5.60;;;3.40;;
7539;SDS011;3811;49.006;12.076;2023-07-20T02:30:30;3.53;;;2.93;;
7539;SDS011;3811;49.006;12.076;2023-07-20T02:32:57;3.63;;;3.33;;
7539;SDS011;3811;49.006;12.076;2023-07-20T02:35:25;4.43;;;3.00;;
7539;SDS011;3811;49.006;12.076;2023-07-20T02:37:52;4.40;;;3.10;;
7539;SDS011;3811;49.006;12.076;2023-07-20T02:40:21;3.37;;;3.07;;
7539;SDS011;3811;49.006;12.076;2023-07-20T02:42:48;3.67;;;2.90;;
7539;SDS011;3811;49.006;12.076;2023-07-20T02:45:15;3.67;;;2.93;;
7539;SDS011;3811;49.006;12.076;2023-07-20T02:47:43;5.20;;;3.20;;
7539;SDS011;3811;49.006;12.076;2023-07-20T02:50:10;3.73;;;3.30;;
7539;SDS011;3811;49.006;12.076;2023-07-20T02:52:38;3.07;;;2.77;;
7539;SDS011;3811;49.006;12.076;2023-07-20T02:55:06;3.77;;;3.23;;
7539;SDS011;3811;49.006;12.076;2023-07-20T02:57:34;6.27;;;3.53;;
7539;SDS011;3811;49.006;12.076;2023-07-20T03:00:02;3.33;;;2.90;;
7539;SDS011;3811;49.006;12.076;2023-07-20T03:02:31;2.80;;;2.60;;
7539;SDS011;3811;49.006;12.076;2023-07-20T03:04:58;3.30;;;2.60;;
7539;SDS011;3811;49.006;12.076;2023-07-20T03:07:26;2.43;;;2.23;;
7539;SDS011;3811;49.006;12.076;2023-07-20T03:09:54;4.20;;;2.60;;
7539;SDS011;3811;49.006;12.076;2023-07-20T03:12:22;3.47;;;3.03;;
7539;SDS011;3811;49.006;12.076;2023-07-20T03:14:51;3.40;;;2.77;;
7539;SDS011;3811;49.006;12.076;2023-07-20T03:17:19;4.03;;;2.73;;
7539;SDS011;3811;49.006;12.076;2023-07-20T03:19:46;3.20;;;2.90;;
7539;SDS011;3811;49.006;12.076;2023-07-20T03:22:13;3.90;;;2.73;;
7539;SDS011;3811;49.006;12.076;2023-07-20T03:24:41;4.23;;;3.10;;
7539;SDS011;3811;49.006;12.076;2023-07-20T03:27:08;2.90;;;2.70;;
7539;SDS011;3811;49.006;12.076;2023-07-20T03:29:35;3.20;;;2.90;;
7539;SDS011;3811;49.006;12.076;2023-07-20T03:32:04;2.67;;;2.47;;
7539;SDS011;3811;49.006;12.076;2023-07-20T03:34:31;4.33;;;3.13;;
7539;SDS011;3811;49.006;12.076;2023-07-20T03:36:59;4.87;;;3.43;;
7539;SDS011;3811;49.006;12.076;2023-07-20T03:39:26;2.90;;;2.60;;
7539;SDS011;3811;49.006;12.076;2023-07-20T03:41:53;3.70;;;3.00;;
7539;SDS011;3811;49.006;12.076;2023-07-20T03:44:20;3.87;;;3.10;;
7539;SDS011;3811;49.006;12.076;2023-07-20T03:46:48;3.33;;;2.40;;
7539;SDS011;3811;49.006;12.076;2023-07-20T03:49:16;4.60;;;2.70;;
7539;SDS011;3811;49.006;12.076;2023-07-20T03:51:43;3.83;;;3.03;;
7539;SDS011;3811;49.006;12.076;2023-07-20T03:54:10;3.33;;;2.73;;
7539;SDS011;3811;49.006;12.076;2023-07-20T03:56:37;2.80;;;2.50;;
7539;SDS011;3811;49.006;12.076;2023-07-20T03:59:04;2.90;;;2.67;;
7539;SDS011;3811;49.006;12.076;2023-07-20T04:01:32;2.70;;;2.43;;
7539;SDS011;3811;49.006;12.076;2023-07-20T04:04:01;3.07;;;2.83;;
7539;SDS011;3811;49.006;12.076;2023-07-20T04:06:30;3.23;;;2.73;;
7539;SDS011;3811;49.006;12.076;2023-07-20T04:08:57;5.27;;;2.80;;
7539;SDS011;3811;49.006;12.076;2023-07-20T04:11:24;7.13;;;2.73;;
7539;SDS011;3811;49.006;12.076;2023-07-20T04:13:51;4.20;;;2.93;;
7539;SDS011;3811;49.006;12.076;2023-07-20T04:16:19;4.40;;;3.17;;
7539;SDS011;3811;49.006;12.076;2023-07-20T04:18:46;3.10;;;2.80;;
7539;SDS011;3811;49.006;12.076;2023-07-20T04:21:14;3.60;;;2.20;;
7539;SDS011;3811;49.006;12.076;2023-07-20T04:23:43;3.67;;;2.97;;
7539;SDS011;3811;49.006;12.076;2023-07-20T04:26:10;3.57;;;2.73;;
7539;SDS011;3811;49.006;12.076;2023-07-20T04:28:39;3.30;;;2.67;;
7539;SDS011;3811;49.006;12.076;2023-07-20T04:31:11;3.90;;;3.00;;
7539;SDS011;3811;49.006;12.076;2023-07-20T04:33:38;3.70;;;2.97;;
7539;SDS011;3811;49.006;12.076;2023-07-20T04:36:06;3.33;;;2.70;;
7539;SDS011;3811;49.006;12.076;2023-07-20T04:38:34;3.60;;;2.90;;
7539;SDS011;3811;49.006;12.076;2023-07-20T04:41:13;4.87;;;3.07;;
7539;SDS011;3811;49.006;12.076;2023-07-20T04:43:44;2.70;;;2.50;;
7539;SDS011;3811;49.006;12.076;2023-07-20T04:46:13;4.50;;;2.93;;
7539;SDS011;3811;49.006;12.076;2023-07-20T04:48:41;4.43;;;2.97;;
7539;SDS011;3811;49.006;12.076;2023-07-20T04:51:09;3.50;;;2.70;;
7539;SDS011;3811;49.006;12.076;2023-07-20T04:53:37;4.77;;;2.70;;
7539;SDS011;3811;49.006;12.076;2023-07-20T04:56:06;3.97;;;2.60;;
7539;SDS011;3811;49.006;12.076;2023-07-20T04:58:34;6.07;;;2.80;;
7539;SDS011;3811;49.006;12.076;2023-07-20T05:01:01;3.73;;;2.43;;
7539;SDS011;3811;49.006;12.076;2023-07-20T05:03:30;3.50;;;2.77;;
7539;SDS011;3811;49.006;12.076;2023-07-20T05:05:58;5.23;;;2.90;;
7539;SDS011;3811;49.006;12.076;2023-07-20T05:08:25;3.40;;;2.67;;
7539;SDS011;3811;49.006;12.076;2023-07-20T05:10:52;5.27;;;3.00;;
7539;SDS011;3811;49.006;12.076;2023-07-20T05:13:20;2.73;;;2.53;;
7539;SDS011;3811;49.006;12.076;2023-07-20T05:15:52;7.47;;;3.00;;
7539;SDS011;3811;49.006;12.076;2023-07-20T05:18:20;2.70;;;2.50;;
7539;SDS011;3811;49.006;12.076;2023-07-20T05:20:49;2.60;;;2.40;;
7539;SDS011;3811;49.006;12.076;2023-07-20T05:23:17;3.77;;;3.03;;
7539;SDS011;3811;49.006;12.076;2023-07-20T05:25:44;2.97;;;2.77;;
7539;SDS011;3811;49.006;12.076;2023-07-20T05:28:11;5.17;;;2.97;;
7539;SDS011;3811;49.006;12.076;2023-07-20T05:30:39;3.70;;;2.93;;
7539;SDS011;3811;49.006;12.076;2023-07-20T05:33:07;4.37;;;3.07;;
7539;SDS011;3811;49.006;12.076;2023-07-20T05:35:35;5.83;;;3.07;;
7539;SDS011;3811;49.006;12.076;2023-07-20T05:38:02;3.60;;;3.20;;
7539;SDS011;3811;49.006;12.076;2023-07-20T05:40:31;3.70;;;2.67;;
7539;SDS011;3811;49.006;12.076;2023-07-20T05:42:58;4.87;;;3.27;;
7539;SDS011;3811;49.006;12.076;2023-07-20T05:45:25;5.30;;;3.00;;
7539;SDS011;3811;49.006;12.076;2023-07-20T05:47:53;3.70;;;3.20;;
7539;SDS011;3811;49.006;12.076;2023-07-20T05:50:21;3.37;;;3.07;;
7539;SDS011;3811;49.006;12.076;2023-07-20T05:52:48;3.73;;;3.17;;
7539;SDS011;3811;49.006;12.076;2023-07-20T05:55:15;5.40;;;3.53;;
7539;SDS011;3811;49.006;12.076;2023-07-20T05:57:42;5.83;;;3.63;;
7539;SDS011;3811;49.006;12.076;2023-07-20T06:00:09;4.80;;;3.73;;
7539;SDS011;3811;49.006;12.076;2023-07-20T06:02:38;4.40;;;4.00;;
7539;SDS011;3811;49.006;12.076;2023-07-20T06:05:05;4.63;;;3.40;;
7539;SDS011;3811;49.006;12.076;2023-07-20T06:07:36;6.00;;;3.70;;
7539;SDS011;3811;49.006;12.076;2023-07-20T06:10:03;4.40;;;4.00;;
7539;SDS011;3811;49.006;12.076;2023-07-20T06:12:30;4.40;;;4.00;;
7539;SDS011;3811;49.006;12.076;2023-07-20T06:15:01;5.07;;;4.13;;
7539;SDS011;3811;49.006;12.076;2023-07-20T06:17:29;6.80;;;4.23;;
7539;SDS011;3811;49.006;12.076;2023-07-20T06:19:57;5.93;;;4.50;;
7539;SDS011;3811;49.006;12.076;2023-07-20T06:22:24;4.40;;;3.93;;
7539;SDS011;3811;49.006;12.076;2023-07-20T06:24:52;8.00;;;3.93;;
7539;SDS011;3811;49.006;12.076;2023-07-20T06:27:19;6.60;;;4.13;;
7539;SDS011;3811;49.006;12.076;2023-07-20T06:29:46;4.83;;;4.03;;
7539;SDS011;3811;49.006;12.076;2023-07-20T06:32:13;5.07;;;4.57;;
7539;SDS011;3811;49.006;12.076;2023-07-20T06:34:40;6.70;;;4.10;;
7539;SDS011;3811;49.006;12.076;2023-07-20T06:37:07;5.53;;;4.10;;
7539;SDS011;3811;49.006;12.076;2023-07-20T06:39:34;5.13;;;4.00;;
7539;SDS011;3811;49.006;12.076;2023-07-20T06:42:03;5.90;;;4.17;;
7539;SDS011;3811;49.006;12.076;2023-07-20T06:44:30;4.23;;;3.70;;
7539;SDS011;3811;49.006;12.076;2023-07-20T06:46:58;3.90;;;3.60;;
7539;SDS011;3811;49.006;12.076;2023-07-20T06:49:26;4.20;;;3.80;;
7539;SDS011;3811;49.006;12.076;2023-07-20T06:51:53;4.10;;;3.70;;
7539;SDS011;3811;49.006;12.076;2023-07-20T06:54:20;4.87;;;4.13;;
7539;SDS011;3811;49.006;12.076;2023-07-20T06:56:47;4.07;;;3.43;;
7539;SDS011;3811;49.006;12.076;2023-07-20T06:59:15;3.90;;;3.43;;
7539;SDS011;3811;49.006;12.076;2023-07-20T07:01:42;5.17;;;3.80;;
7539;SDS011;3811;49.006;12.076;2023-07-20T07:04:09;7.50;;;3.73;;
7539;SDS011;3811;49.006;12.076;2023-07-20T07:06:36;6.07;;;3.90;;
7539;SDS011;3811;49.006;12.076;2023-07-20T07:09:04;6.80;;;3.40;;
7539;SDS011;3811;49.006;12.076;2023-07-20T07:11:31;6.37;;;3.33;;
7539;SDS011;3811;49.006;12.076;2023-07-20T07:13:58;3.50;;;3.20;;
7539;SDS011;3811;49.006;12.076;2023-07-20T07:16:27;6.47;;;3.80;;
7539;SDS011;3811;49.006;12.076;2023-07-20T07:18:54;4.07;;;3.60;;
7539;SDS011;3811;49.006;12.076;2023-07-20T07:21:21;4.87;;;3.53;;
7539;SDS011;3811;49.006;12.076;2023-07-20T07:23:48;4.47;;;3.97;;
7539;SDS011;3811;49.006;12.076;2023-07-20T07:26:18;5.43;;;3.40;;
7539;SDS011;3811;49.006;12.076;2023-07-20T07:28:45;4.03;;;3.73;;
7539;SDS011;3811;49.006;12.076;2023-07-20T07:31:12;4.63;;;3.73;;
7539;SDS011;3811;49.006;12.076;2023-07-20T07:33:41;6.73;;;3.73;;
7539;SDS011;3811;49.006;12.076;2023-07-20T07:36:08;6.33;;;3.83;;
7539;SDS011;3811;49.006;12.076;2023-07-20T07:38:35;4.47;;;4.03;;
7539;SDS011;3811;49.006;12.076;2023-07-20T07:41:03;5.23;;;3.40;;
7539;SDS011;3811;49.006;12.076;2023-07-20T07:43:30;6.20;;;3.67;;
7539;SDS011;3811;49.006;12.076;2023-07-20T07:45:58;5.50;;;3.50;;
7539;SDS011;3811;49.006;12.076;2023-07-20T07:48:25;4.40;;;3.57;;
7539;SDS011;3811;49.006;12.076;2023-07-20T07:50:54;3.97;;;3.10;;
7539;SDS011;3811;49.006;12.076;2023-07-20T07:53:22;4.63;;;3.20;;
7539;SDS011;3811;49.006;12.076;2023-07-20T07:55:54;5.30;;;3.20;;
7539;SDS011;3811;49.006;12.076;2023-07-20T07:58:21;3.03;;;2.67;;
7539;SDS011;3811;49.006;12.076;2023-07-20T08:00:49;5.70;;;3.23;;
7539;SDS011;3811;49.006;12.076;2023-07-20T08:03:16;3.87;;;3.33;;
7539;SDS011;3811;49.006;12.076;2023-07-20T08:05:44;4.43;;;3.17;;
7539;SDS011;3811;49.006;12.076;2023-07-20T08:08:12;6.83;;;3.30;;
7539;SDS011;3811;49.006;12.076;2023-07-20T08:10:41;3.57;;;3.10;;
7539;SDS011;3811;49.006;12.076;2023-07-20T08:13:08;4.10;;;3.20;;
7539;SDS011;3811;49.006;12.076;2023-07-20T08:15:35;7.43;;;3.23;;
7539;SDS011;3811;49.006;12.076;2023-07-20T08:18:02;5.13;;;2.63;;
7539;SDS011;3811;49.006;12.076;2023-07-20T08:20:29;3.13;;;2.93;;
7539;SDS011;3811;49.006;12.076;2023-07-20T08:23:01;2.83;;;2.60;;
7539;SDS011;3811;49.006;12.076;2023-07-20T08:25:29;3.30;;;2.97;;
7539;SDS011;3811;49.006;12.076;2023-07-20T08:27:57;5.57;;;2.70;;
7539;SDS011;3811;49.006;12.076;2023-07-20T08:30:26;5.00;;;2.40;;
7539;SDS011;3811;49.006;12.076;2023-07-20T08:32:53;2.97;;;2.70;;
7539;SDS011;3811;49.006;12.076;2023-07-20T08:35:20;2.73;;;2.53;;
7539;SDS011;3811;49.006;12.076;2023-07-20T08:37:47;2.83;;;2.57;;
7539;SDS011;3811;49.006;12.076;2023-07-20T08:40:15;3.77;;;3.37;;
7539;SDS011;3811;49.006;12.076;2023-07-20T08:42:44;3.43;;;2.73;;
7539;SDS011;3811;49.006;12.076;2023-07-20T08:45:12;4.43;;;2.37;;
7539;SDS011;3811;49.006;12.076;2023-07-20T08:47:40;2.90;;;2.27;;
7539;SDS011;3811;49.006;12.076;2023-07-20T08:50:09;2.70;;;2.50;;
7539;SDS011;3811;49.006;12.076;2023-07-20T08:52:37;3.00;;;2.57;;
7539;SDS011;3811;49.006;12.076;2023-07-20T08:55:05;3.17;;;2.60;;
7539;SDS011;3811;49.006;12.076;2023-07-20T08:57:32;7.43;;;2.70;;
7539;SDS011;3811;49.006;12.076;2023-07-20T09:00:12;2.83;;;2.07;;
7539;SDS011;3811;49.006;12.076;2023-07-20T09:02:41;4.63;;;2.20;;
7539;SDS011;3811;49.006;12.076;2023-07-20T09:05:08;5.10;;;2.40;;
7539;SDS011;3811;49.006;12.076;2023-07-20T09:07:36;2.23;;;2.03;;
7539;SDS011;3811;49.006;12.076;2023-07-20T09:10:03;2.37;;;2.17;;
7539;SDS011;3811;49.006;12.076;2023-07-20T09:12:31;3.73;;;2.00;;
7539;SDS011;3811;49.006;12.076;2023-07-20T09:14:58;2.60;;;2.40;;
7539;SDS011;3811;49.006;12.076;2023-07-20T09:17:28;2.07;;;1.97;;
7539;SDS011;3811;49.006;12.076;2023-07-20T09:19:55;3.30;;;2.13;;
7539;SDS011;3811;49.006;12.076;2023-07-20T09:22:25;2.97;;;2.00;;
7539;SDS011;3811;49.006;12.076;2023-07-20T09:24:56;2.23;;;1.80;;
7539;SDS011;3811;49.006;12.076;2023-07-20T09:27:29;2.70;;;2.20;;
7539;SDS011;3811;49.006;12.076;2023-07-20T09:30:03;2.50;;;2.30;;
7539;SDS011;3811;49.006;12.076;2023-07-20T09:32:31;1.90;;;1.70;;
7539;SDS011;3811;49.006;12.076;2023-07-20T09:35:04;2.57;;;1.80;;
7539;SDS011;3811;49.006;12.076;2023-07-20T09:37:32;2.03;;;1.83;;
7539;SDS011;3811;49.006;12.076;2023-07-20T09:40:01;2.53;;;1.90;;
7539;SDS011;3811;49.006;12.076;2023-07-20T09:42:28;2.53;;;1.90;;
7539;SDS011;3811;49.006;12.076;2023-07-20T09:44:55;3.93;;;1.83;;
7539;SDS011;3811;49.006;12.076;2023-07-20T09:47:23;2.57;;;2.13;;
7539;SDS011;3811;49.006;12.076;2023-07-20T09:49:57;2.13;;;1.90;;
7539;SDS011;3811;49.006;12.076;2023-07-20T09:52:25;2.00;;;1.90;;
7539;SDS011;3811;49.006;12.076;2023-07-20T09:54:53;5.07;;;2.30;;
7539;SDS011;3811;49.006;12.076;2023-07-20T09:57:21;3.10;;;2.10;;
7539;SDS011;3811;49.006;12.076;2023-07-20T09:59:48;2.13;;;1.80;;
7539;SDS011;3811;49.006;12.076;2023-07-20T10:02:19;6.10;;;2.20;;
7539;SDS011;3811;49.006;12.076;2023-07-20T10:04:48;2.90;;;2.00;;
7539;SDS011;3811;49.006;12.076;2023-07-20T10:07:20;3.73;;;1.77;;
7539;SDS011;3811;49.006;12.076;2023-07-20T10:09:50;3.30;;;1.93;;
7539;SDS011;3811;49.006;12.076;2023-07-20T10:12:19;3.07;;;1.70;;
7539;SDS011;3811;49.006;12.076;2023-07-20T10:14:49;2.37;;;1.77;;
7539;SDS011;3811;49.006;12.076;2023-07-20T10:17:24;1.73;;;1.63;;
7539;SDS011;3811;49.006;12.076;2023-07-20T10:19:53;2.93;;;1.97;;
7539;SDS011;3811;49.006;12.076;2023-07-20T10:22:24;3.07;;;2.00;;
7539;SDS011;3811;49.006;12.076;2023-07-20T10:24:52;2.37;;;2.00;;
7539;SDS011;3811;49.006;12.076;2023-07-20T10:27:23;2.27;;;2.07;;
7539;SDS011;3811;49.006;12.076;2023-07-20T10:29:50;2.03;;;1.90;;
7539;SDS011;3811;49.006;12.076;2023-07-20T10:32:18;2.77;;;2.00;;
7539;SDS011;3811;49.006;12.076;2023-07-20T10:34:50;2.50;;;1.80;;
7539;SDS011;3811;49.006;12.076;2023-07-20T10:40:26;2.60;;;1.70;;
7539;SDS011;3811;49.006;12.076;2023-07-20T10:43:05;3.93;;;2.03;;
7539;SDS011;3811;49.006;12.076;2023-07-20T10:45:37;1.83;;;1.73;;
7539;SDS011;3811;49.006;12.076;2023-07-20T10:48:12;1.90;;;1.80;;
7539;SDS011;3811;49.006;12.076;2023-07-20T10:50:40;2.33;;;1.87;;
7539;SDS011;3811;49.006;12.076;2023-07-20T10:53:13;1.90;;;1.80;;
7539;SDS011;3811;49.006;12.076;2023-07-20T10:55:41;3.50;;;1.73;;
7539;SDS011;3811;49.006;12.076;2023-07-20T10:58:10;2.73;;;2.10;;
7539;SDS011;3811;49.006;12.076;2023-07-20T11:00:56;3.07;;;1.80;;
7539;SDS011;3811;49.006;12.076;2023-07-20T11:03:28;3.47;;;2.20;;
7539;SDS011;3811;49.006;12.076;2023-07-20T11:05:57;1.90;;;1.77;;
7539;SDS011;3811;49.006;12.076;2023-07-20T11:08:41;1.93;;;1.70;;
7539;SDS011;3811;49.006;12.076;2023-07-20T11:14:01;3.03;;;1.60;;
7539;SDS011;3811;49.006;12.076;2023-07-20T11:16:35;2.37;;;1.70;;
7539;SDS011;3811;49.006;12.076;2023-07-20T11:19:04;2.00;;;1.90;;
7539;SDS011;3811;49.006;12.076;2023-07-20T11:21:36;1.73;;;1.63;;
7539;SDS011;3811;49.006;12.076;2023-07-20T11:24:06;1.70;;;1.60;;
7539;SDS011;3811;49.006;12.076;2023-07-20T11:26:41;2.70;;;2.10;;
7539;SDS011;3811;49.006;12.076;2023-07-20T11:29:12;2.20;;;2.10;;
7539;SDS011;3811;49.006;12.076;2023-07-20T11:31:39;4.40;;;1.80;;
7539;SDS011;3811;49.006;12.076;2023-07-20T11:34:07;2.50;;;1.60;;
7539;SDS011;3811;49.006;12.076;2023-07-20T11:36:36;3.57;;;1.87;;
7539;SDS011;3811;49.006;12.076;2023-07-20T11:39:03;2.80;;;1.80;;
7539;SDS011;3811;49.006;12.076;2023-07-20T11:41:32;1.87;;;1.77;;
7539;SDS011;3811;49.006;12.076;2023-07-20T11:43:59;4.27;;;1.90;;
7539;SDS011;3811;49.006;12.076;2023-07-20T11:46:27;1.80;;;1.70;;
7539;SDS011;3811;49.006;12.076;2023-07-20T11:48:57;1.77;;;1.60;;
7539;SDS011;3811;49.006;12.076;2023-07-20T11:51:26;2.20;;;1.70;;
7539;SDS011;3811;49.006;12.076;2023-07-20T11:53:54;3.80;;;2.13;;
7539;SDS011;3811;49.006;12.076;2023-07-20T11:56:22;1.77;;;1.67;;
7539;SDS011;3811;49.006;12.076;2023-07-20T11:58:53;2.13;;;1.97;;
7539;SDS011;3811;49.006;12.076;2023-07-20T12:01:21;3.40;;;1.90;;
7539;SDS011;3811;49.006;12.076;2023-07-20T12:03:48;2.33;;;1.93;;
7539;SDS011;3811;49.006;12.076;2023-07-20T12:06:15;2.97;;;2.00;;
7539;SDS011;3811;49.006;12.076;2023-07-20T12:08:43;4.73;;;1.93;;
7539;SDS011;3811;49.006;12.076;2023-07-20T12:11:10;2.20;;;1.60;;
7539;SDS011;3811;49.006;12.076;2023-07-20T12:13:38;2.23;;;2.10;;
7539;SDS011;3811;49.006;12.076;2023-07-20T12:16:08;3.83;;;1.77;;
7539;SDS011;3811;49.006;12.076;2023-07-20T12:18:37;3.33;;;1.83;;
7539;SDS011;3811;49.006;12.076;2023-07-20T12:21:05;2.07;;;1.80;;
7539;SDS011;3811;49.006;12.076;2023-07-20T12:23:36;1.87;;;1.70;;
7539;SDS011;3811;49.006;12.076;2023-07-20T12:26:06;1.90;;;1.53;;
7539;SDS011;3811;49.006;12.076;2023-07-20T12:28:35;2.07;;;1.97;;
7539;SDS011;3811;49.006;12.076;2023-07-20T12:31:07;3.40;;;2.00;;
7539;SDS011;3811;49.006;12.076;2023-07-20T12:33:35;3.80;;;1.70;;
7539;SDS011;3811;49.006;12.076;2023-07-20T12:36:03;2.90;;;1.97;;
7539;SDS011;3811;49.006;12.076;2023-07-20T12:38:31;3.80;;;2.03;;
7539;SDS011;3811;49.006;12.076;2023-07-20T12:40:59;1.87;;;1.77;;
7539;SDS011;3811;49.006;12.076;2023-07-20T12:43:27;1.87;;;1.77;;
7539;SDS011;3811;49.006;12.076;2023-07-20T12:45:54;1.93;;;1.60;;
7539;SDS011;3811;49.006;12.076;2023-07-20T12:48:23;2.22;;;1.80;;
7539;SDS011;3811;49.006;12.076;2023-07-20T12:50:50;1.70;;;1.60;;
7539;SDS011;3811;49.006;12.076;2023-07-20T12:53:17;4.83;;;2.00;;
7539;SDS011;3811;49.006;12.076;2023-07-20T12:55:44;1.90;;;1.80;;
7539;SDS011;3811;49.006;12.076;2023-07-20T12:58:11;1.67;;;1.57;;
7539;SDS011;3811;49.006;12.076;2023-07-20T13:00:39;3.83;;;1.90;;
7539;SDS011;3811;49.006;12.076;2023-07-20T13:03:07;1.90;;;1.80;;
7539;SDS011;3811;49.006;12.076;2023-07-20T13:05:36;2.60;;;1.77;;
7539;SDS011;3811;49.006;12.076;2023-07-20T13:08:03;4.97;;;1.87;;
7539;SDS011;3811;49.006;12.076;2023-07-20T13:10:31;2.37;;;1.40;;
7539;SDS011;3811;49.006;12.076;2023-07-20T13:12:59;2.37;;;1.53;;
7539;SDS011;3811;49.006;12.076;2023-07-20T13:15:29;5.17;;;1.50;;
7539;SDS011;3811;49.006;12.076;2023-07-20T13:17:57;1.90;;;1.60;;
7539;SDS011;3811;49.006;12.076;2023-07-20T13:20:25;2.20;;;1.97;;
7539;SDS011;3811;49.006;12.076;2023-07-20T13:22:54;1.80;;;1.70;;
7539;SDS011;3811;49.006;12.076;2023-07-20T13:25:21;1.87;;;1.57;;
7539;SDS011;3811;49.006;12.076;2023-07-20T13:27:48;1.60;;;1.50;;
7539;SDS011;3811;49.006;12.076;2023-07-20T13:30:15;1.93;;;1.60;;
7539;SDS011;3811;49.006;12.076;2023-07-20T13:32:43;1.70;;;1.60;;
7539;SDS011;3811;49.006;12.076;2023-07-20T13:35:10;3.17;;;1.67;;
7539;SDS011;3811;49.006;12.076;2023-07-20T13:37:37;2.23;;;1.60;;
7539;SDS011;3811;49.006;12.076;2023-07-20T13:40:07;2.77;;;1.73;;
7539;SDS011;3811;49.006;12.076;2023-07-20T13:42:37;3.17;;;1.70;;
7539;SDS011;3811;49.006;12.076;2023-07-20T13:45:05;1.80;;;1.30;;
7539;SDS011;3811;49.006;12.076;2023-07-20T13:47:33;1.60;;;1.50;;
7539;SDS011;3811;49.006;12.076;2023-07-20T13:50:01;1.70;;;1.60;;
7539;SDS011;3811;49.006;12.076;2023-07-20T13:52:28;1.43;;;1.40;;
7539;SDS011;3811;49.006;12.076;2023-07-20T13:54:55;2.00;;;1.50;;
7539;SDS011;3811;49.006;12.076;2023-07-20T13:57:23;2.30;;;1.60;;
7539;SDS011;3811;49.006;12.076;2023-07-20T13:59:51;4.30;;;1.70;;
7539;SDS011;3811;49.006;12.076;2023-07-20T14:02:18;2.08;;;1.65;;
7539;SDS011;3811;49.006;12.076;2023-07-20T14:04:45;3.47;;;1.60;;
7539;SDS011;3811;49.006;12.076;2023-07-20T14:07:13;3.83;;;1.80;;
7539;SDS011;3811;49.006;12.076;2023-07-20T14:09:40;1.90;;;1.60;;
7539;SDS011;3811;49.006;12.076;2023-07-20T14:12:07;1.80;;;1.70;;
7539;SDS011;3811;49.006;12.076;2023-07-20T14:14:38;1.85;;;1.70;;
7539;SDS011;3811;49.006;12.076;2023-07-20T14:17:06;1.38;;;1.33;;
7539;SDS011;3811;49.006;12.076;2023-07-20T14:19:33;1.80;;;1.52;;
7539;SDS011;3811;49.006;12.076;2023-07-20T14:22:00;3.45;;;1.73;;
7539;SDS011;3811;49.006;12.076;2023-07-20T14:24:29;1.60;;;1.50;;
7539;SDS011;3811;49.006;12.076;2023-07-20T14:26:56;1.77;;;1.65;;
7539;SDS011;3811;49.006;12.076;2023-07-20T14:29:23;3.17;;;1.52;;
7539;SDS011;3811;49.006;12.076;2023-07-20T14:31:52;2.05;;;1.90;;
7539;SDS011;3811;49.006;12.076;2023-07-20T14:34:19;1.95;;;1.55;;
7539;SDS011;3811;49.006;12.076;2023-07-20T14:36:46;1.88;;;1.33;;
7539;SDS011;3811;49.006;12.076;2023-07-20T14:39:13;1.88;;;1.77;;
7539;SDS011;3811;49.006;12.076;2023-07-20T14:41:40;1.67;;;1.55;;
7539;SDS011;3811;49.006;12.076;2023-07-20T14:44:07;1.83;;;1.73;;
7539;SDS011;3811;49.006;12.076;2023-07-20T14:46:35;1.80;;;1.70;;
7539;SDS011;3811;49.006;12.076;2023-07-20T14:49:03;2.15;;;1.90;;
7539;SDS011;3811;49.006;12.076;2023-07-20T14:51:30;1.50;;;1.40;;
7539;SDS011;3811;49.006;12.076;2023-07-20T14:53:58;1.88;;;1.77;;
7539;SDS011;3811;49.006;12.076;2023-07-20T14:56:26;1.98;;;1.77;;
7539;SDS011;3811;49.006;12.076;2023-07-20T14:58:53;1.70;;;1.60;;
7539;SDS011;3811;49.006;12.076;2023-07-20T15:01:20;1.55;;;1.45;;
7539;SDS011;3811;49.006;12.076;2023-07-20T15:03:48;1.70;;;1.60;;
7539;SDS011;3811;49.006;12.076;2023-07-20T15:06:19;1.63;;;1.52;;
7539;SDS011;3811;49.006;12.076;2023-07-20T15:08:46;3.67;;;1.50;;
7539;SDS011;3811;49.006;12.076;2023-07-20T15:11:14;1.50;;;1.40;;
7539;SDS011;3811;49.006;12.076;2023-07-20T15:13:41;3.78;;;2.00;;
7539;SDS011;3811;49.006;12.076;2023-07-20T15:16:08;1.77;;;1.67;;